Time;durP1;ratioP1;P1;durP2;ratioP2;P2;SDS_P1;SDS_P2;PMS_P1;PMS_P2;Temp;Humidity;BMP_temperature;BMP_pressure;BME280_temperature;BME280_humidity;BME280_pressure;Samples;Min_cycle;Max_cycle;Signal;HPM_P1;HPM_P2
2023/09/05 00:00:16;;;;;;;2.03;1.23;;;13.90;99.90;;;;;;5058148;28;20494;-76
2023/09/05 00:02:43;;;;;;;2.30;1.88;;;13.80;99.90;;;;;;5058155;28;20025;-77
2023/09/05 00:05:09;;;;;;;1.88;1.48;;;13.80;99.90;;;;;;5058442;28;20074;-76
2023/09/05 00:07:36;;;;;;;3.47;1.63;;;13.70;99.90;;;;;;5058124;28;20052;-77
2023/09/05 00:10:04;;;;;;;2.60;1.55;;;13.70;99.90;;;;;;5059011;28;20032;-77
2023/09/05 00:12:30;;;;;;;1.90;1.48;;;13.60;99.90;;;;;;5059436;28;20037;-77
2023/09/05 00:14:57;;;;;;;2.28;1.52;;;13.60;99.90;;;;;;5059281;28;20029;-78
2023/09/05 00:17:23;;;;;;;1.58;1.48;;;13.60;99.90;;;;;;5058207;28;20029;-78
2023/09/05 00:19:49;;;;;;;2.10;1.80;;;13.50;99.90;;;;;;5057948;28;20033;-77
2023/09/05 00:22:15;;;;;;;1.60;1.38;;;13.50;99.90;;;;;;5058239;28;20029;-76
2023/09/05 00:24:42;;;;;;;2.90;1.20;;;13.60;99.90;;;;;;5058798;28;20028;-76
2023/09/05 00:27:11;;;;;;;2.80;1.50;;;13.60;99.90;;;;;;5057440;28;20108;-76
2023/09/05 00:29:38;;;;;;;1.65;1.50;;;13.60;99.90;;;;;;5058706;28;20021;-78
2023/09/05 00:32:04;;;;;;;1.77;1.58;;;13.40;99.90;;;;;;5060334;28;20029;-77
2023/09/05 00:34:32;;;;;;;2.75;1.42;;;13.40;99.90;;;;;;5058762;28;20029;-76
2023/09/05 00:37:00;;;;;;;4.45;1.50;;;13.30;99.90;;;;;;5059611;28;20110;-77
2023/09/05 00:39:29;;;;;;;1.50;1.40;;;13.30;99.90;;;;;;5060524;28;20056;-78
2023/09/05 00:41:56;;;;;;;2.25;1.65;;;13.20;99.90;;;;;;5057180;28;20086;-77
2023/09/05 00:44:25;;;;;;;1.73;1.20;;;13.10;99.90;;;;;;5059785;28;20099;-77
2023/09/05 00:46:54;;;;;;;1.77;1.30;;;13.00;99.90;;;;;;5058967;28;20107;-77
2023/09/05 00:49:27;;;;;;;3.85;1.65;;;13.00;99.90;;;;;;5059103;28;20025;-77
2023/09/05 00:51:55;;;;;;;1.45;1.30;;;13.00;99.90;;;;;;5060308;28;20033;-77
2023/09/05 00:54:21;;;;;;;6.22;1.83;;;13.00;99.90;;;;;;5058733;28;20407;-77
2023/09/05 00:56:48;;;;;;;4.03;1.85;;;12.90;99.90;;;;;;5058559;28;20032;-77
2023/09/05 00:59:14;;;;;;;3.53;1.48;;;12.80;99.90;;;;;;5059768;28;20021;-77
2023/09/05 01:01:40;;;;;;;2.83;1.50;;;12.80;99.90;;;;;;5057795;28;20624;-77
2023/09/05 01:04:06;;;;;;;2.10;1.52;;;12.80;99.90;;;;;;5058117;28;20043;-78
2023/09/05 01:06:46;;;;;;;4.15;1.75;;;12.80;99.90;;;;;;5055584;28;20021;-78
2023/09/05 01:09:27;;;;;;;2.38;1.38;;;12.70;99.90;;;;;;5057487;28;20098;-77
2023/09/05 01:11:54;;;;;;;2.08;1.65;;;12.60;99.90;;;;;;5056351;28;20092;-77
2023/09/05 01:14:20;;;;;;;2.55;1.70;;;12.60;99.90;;;;;;5056876;28;20024;-76
2023/09/05 01:16:46;;;;;;;2.00;1.73;;;12.60;99.90;;;;;;5056967;28;20029;-79
2023/09/05 01:19:15;;;;;;;1.73;1.50;;;12.60;99.90;;;;;;5056961;28;20686;-78
2023/09/05 01:22:04;;;;;;;2.75;1.88;;;12.50;99.90;;;;;;5057737;28;20029;-77
2023/09/05 01:24:30;;;;;;;2.42;1.95;;;12.50;99.90;;;;;;5056644;28;20084;-77
2023/09/05 01:26:56;;;;;;;2.63;1.65;;;12.50;99.90;;;;;;5057151;28;20057;-77
2023/09/05 01:29:30;;;;;;;2.38;1.67;;;12.50;99.90;;;;;;5055352;28;20025;-77
2023/09/05 01:31:58;;;;;;;6.18;1.90;;;12.40;99.90;;;;;;5057524;28;20040;-79
2023/09/05 01:34:24;;;;;;;2.15;1.73;;;12.30;99.90;;;;;;5056853;28;20043;-77
2023/09/05 01:36:50;;;;;;;2.85;2.08;;;12.30;99.90;;;;;;5056020;28;20510;-77
2023/09/05 01:39:15;;;;;;;2.22;1.75;;;12.30;99.90;;;;;;5059054;28;20029;-77
2023/09/05 01:41:41;;;;;;;1.73;1.63;;;12.20;99.90;;;;;;5059374;28;20032;-78
2023/09/05 01:44:08;;;;;;;2.35;1.70;;;12.20;99.90;;;;;;5057795;28;20017;-78
2023/09/05 01:46:34;;;;;;;3.42;2.03;;;12.20;99.90;;;;;;5055095;28;20071;-78
2023/09/05 01:48:59;;;;;;;2.33;1.90;;;12.10;99.90;;;;;;5055406;28;20017;-78
2023/09/05 01:51:25;;;;;;;2.58;1.85;;;12.10;99.90;;;;;;5057087;28;20060;-77
2023/09/05 01:53:50;;;;;;;2.72;1.90;;;12.10;99.90;;;;;;5055751;28;20035;-77
2023/09/05 01:56:16;;;;;;;2.20;1.75;;;12.10;99.90;;;;;;5057688;28;20084;-77
2023/09/05 01:58:42;;;;;;;2.80;1.70;;;12.10;99.90;;;;;;5057308;28;20029;-77
2023/09/05 02:01:07;;;;;;;2.78;2.35;;;12.00;99.90;;;;;;5058516;28;20427;-78
2023/09/05 02:03:34;;;;;;;4.22;1.85;;;12.10;99.90;;;;;;5056605;28;20044;-77
2023/09/05 02:05:59;;;;;;;2.53;1.63;;;12.00;99.90;;;;;;5057278;28;20028;-77
2023/09/05 02:08:25;;;;;;;2.25;1.73;;;12.00;99.90;;;;;;5057858;28;20041;-77
2023/09/05 02:10:51;;;;;;;1.80;1.70;;;12.00;99.90;;;;;;5057013;28;20029;-77
2023/09/05 02:13:19;;;;;;;7.38;2.00;;;12.00;99.90;;;;;;5058821;28;20479;-78
2023/09/05 02:15:44;;;;;;;4.10;2.13;;;12.00;99.90;;;;;;5058331;28;20191;-79
2023/09/05 02:18:13;;;;;;;2.28;1.67;;;12.00;99.90;;;;;;5056910;28;20605;-78
2023/09/05 02:20:40;;;;;;;3.60;2.25;;;12.00;99.90;;;;;;5056458;28;20041;-76
2023/09/05 02:23:06;;;;;;;4.72;1.92;;;12.00;99.90;;;;;;5058466;28;20025;-77
2023/09/05 02:25:32;;;;;;;1.80;1.65;;;11.90;99.90;;;;;;5056071;28;20025;-77
2023/09/05 02:27:58;;;;;;;2.70;2.13;;;11.90;99.90;;;;;;5053873;28;20021;-76
2023/09/05 02:30:24;;;;;;;3.15;1.90;;;11.80;99.90;;;;;;5055762;28;20025;-78
2023/09/05 02:32:54;;;;;;;2.90;2.13;;;11.80;99.90;;;;;;5056391;28;20503;-77
2023/09/05 02:35:25;;;;;;;3.05;2.33;;;11.80;99.90;;;;;;5055558;28;20372;-77
2023/09/05 02:37:55;;;;;;;2.33;2.13;;;11.80;99.90;;;;;;5057506;28;20025;-78
2023/09/05 02:40:21;;;;;;;3.30;2.28;;;11.80;99.90;;;;;;5055465;28;20025;-76
2023/09/05 02:42:47;;;;;;;3.38;2.10;;;11.80;99.90;;;;;;5056534;28;20055;-75
2023/09/05 02:45:13;;;;;;;3.42;1.90;;;11.90;99.90;;;;;;5056166;28;20028;-77
2023/09/05 02:47:40;;;;;;;3.20;1.67;;;11.80;99.90;;;;;;5056721;28;20025;-76
2023/09/05 02:50:06;;;;;;;5.43;1.65;;;11.80;99.90;;;;;;5056361;28;20368;-77
2023/09/05 02:52:33;;;;;;;3.72;1.92;;;11.80;99.90;;;;;;5056221;28;20032;-78
2023/09/05 02:54:59;;;;;;;3.47;2.13;;;11.80;99.90;;;;;;5055445;28;20032;-77
2023/09/05 02:57:25;;;;;;;9.07;1.83;;;11.70;99.90;;;;;;5057452;28;20547;-77
2023/09/05 02:59:54;;;;;;;2.20;1.77;;;11.70;99.90;;;;;;5057112;28;20032;-77
2023/09/05 03:02:22;;;;;;;2.63;1.90;;;11.70;99.90;;;;;;5055246;28;20083;-76
2023/09/05 03:04:51;;;;;;;1.55;1.45;;;11.70;99.90;;;;;;5055757;28;20047;-76
2023/09/05 03:07:17;;;;;;;1.77;1.67;;;11.60;99.90;;;;;;5077968;22;20021;-85
2023/09/05 03:09:43;;;;;;;5.10;2.05;;;11.60;99.90;;;;;;4996408;28;20069;-85
2023/09/05 03:12:08;;;;;;;2.40;1.80;;;11.60;99.90;;;;;;5013336;28;20457;-85
2023/09/05 03:14:34;;;;;;;3.05;2.13;;;11.60;99.90;;;;;;5013197;28;20080;-85
2023/09/05 03:17:02;;;;;;;2.92;2.40;;;11.70;99.90;;;;;;5013314;28;20076;-85
2023/09/05 03:19:27;;;;;;;5.13;1.92;;;11.70;99.90;;;;;;4993435;28;20030;-85
2023/09/05 03:21:53;;;;;;;3.65;2.50;;;11.60;99.90;;;;;;4992946;28;20037;-84
2023/09/05 03:24:21;;;;;;;4.25;1.90;;;11.70;99.90;;;;;;4993584;28;20072;-85
2023/09/05 03:26:47;;;;;;;2.10;1.83;;;11.60;99.90;;;;;;4995015;28;20030;-85
2023/09/05 03:29:15;;;;;;;3.20;2.22;;;11.60;99.90;;;;;;4999185;28;20022;-84
2023/09/05 03:31:41;;;;;;;3.70;2.35;;;11.60;99.90;;;;;;4994171;28;20100;-85
2023/09/05 03:34:07;;;;;;;6.78;2.38;;;12.20;99.90;;;;;;4993530;28;20030;-84
2023/09/05 03:36:35;;;;;;;2.88;1.83;;;12.00;99.90;;;;;;4994299;28;20026;-85
2023/09/05 03:39:01;;;;;;;5.28;2.10;;;11.90;99.90;;;;;;5000025;28;20022;-85
2023/09/05 03:41:27;;;;;;;4.75;2.15;;;11.70;99.90;;;;;;5000388;28;20094;-83
2023/09/05 03:43:53;;;;;;;2.40;2.15;;;11.70;99.90;;;;;;5016034;28;20022;-87
2023/09/05 03:46:19;;;;;;;4.47;2.83;;;11.70;99.90;;;;;;5009568;28;20030;-85
2023/09/05 03:48:45;;;;;;;4.07;2.58;;;11.60;99.90;;;;;;5007538;28;20040;-85
2023/09/05 03:51:11;;;;;;;5.88;1.70;;;11.50;99.90;;;;;;5009506;28;20018;-85
2023/09/05 03:53:37;;;;;;;1.85;1.75;;;11.50;99.90;;;;;;5006521;28;20044;-85
2023/09/05 03:56:03;;;;;;;4.03;1.77;;;11.50;99.90;;;;;;5001226;28;20157;-85
2023/09/05 03:58:28;;;;;;;2.00;1.77;;;11.50;99.90;;;;;;5001477;28;20033;-86
2023/09/05 04:00:57;;;;;;;2.25;2.05;;;11.40;99.90;;;;;;5001441;28;20102;-85
2023/09/05 04:03:22;;;;;;;3.55;2.25;;;11.50;99.90;;;;;;4999080;28;20031;-85
2023/09/05 04:05:48;;;;;;;3.03;2.15;;;11.40;99.90;;;;;;4997394;28;20026;-86
2023/09/05 04:08:14;;;;;;;2.40;2.10;;;11.40;99.90;;;;;;4997206;28;20048;-85
2023/09/05 04:10:39;;;;;;;3.00;2.33;;;11.30;99.90;;;;;;4996806;28;20026;-85
2023/09/05 04:13:05;;;;;;;3.83;2.35;;;11.40;99.90;;;;;;4996730;28;20028;-86
2023/09/05 04:15:32;;;;;;;8.18;2.70;;;11.30;99.90;;;;;;4996629;28;20496;-84
2023/09/05 04:17:57;;;;;;;4.55;2.83;;;11.30;99.90;;;;;;4996770;28;20026;-86
2023/09/05 04:20:23;;;;;;;4.25;2.90;;;11.30;99.90;;;;;;4998509;28;20112;-85
2023/09/05 04:22:48;;;;;;;3.00;2.17;;;11.30;99.90;;;;;;4998722;28;20025;-85
2023/09/05 04:25:14;;;;;;;3.28;2.05;;;11.30;99.90;;;;;;4996752;28;20018;-84
2023/09/05 04:27:40;;;;;;;5.57;2.08;;;11.40;99.90;;;;;;4996014;28;20022;-84
2023/09/05 04:30:06;;;;;;;3.75;2.35;;;11.30;99.90;;;;;;4995961;28;20396;-84
2023/09/05 04:32:32;;;;;;;3.85;2.25;;;11.40;99.90;;;;;;5014769;28;20400;-84
2023/09/05 04:35:03;;;;;;;1.88;1.67;;;11.40;99.90;;;;;;4995940;28;20030;-84
2023/09/05 04:37:29;;;;;;;2.65;2.25;;;11.40;99.90;;;;;;4995957;28;20126;-84
2023/09/05 04:39:55;;;;;;;6.72;2.35;;;11.40;99.90;;;;;;5013505;28;20334;-84
2023/09/05 04:42:21;;;;;;;2.45;1.95;;;11.40;99.90;;;;;;4998985;28;20026;-84
2023/09/05 04:44:47;;;;;;;5.40;3.00;;;11.40;99.90;;;;;;5000028;28;20021;-84
2023/09/05 04:47:21;;;;;;;2.33;2.13;;;11.40;99.90;;;;;;5000011;28;20029;-84
2023/09/05 04:49:52;;;;;;;2.67;2.30;;;11.40;99.90;;;;;;5016544;28;20034;-85
2023/09/05 04:52:19;;;;;;;4.22;2.35;;;12.20;99.90;;;;;;5001065;28;20416;-85
2023/09/05 04:54:45;;;;;;;4.00;2.80;;;12.20;99.90;;;;;;5000690;28;20032;-84
2023/09/05 04:57:12;;;;;;;2.33;2.05;;;12.00;99.90;;;;;;4999557;28;20060;-84
2023/09/05 04:59:40;;;;;;;2.72;2.35;;;12.00;99.90;;;;;;5016676;28;20083;-84
2023/09/05 05:02:06;;;;;;;4.30;2.67;;;11.80;99.90;;;;;;4999785;28;20026;-84
2023/09/05 05:04:31;;;;;;;6.53;2.25;;;11.80;99.90;;;;;;4999747;28;20049;-84
2023/09/05 05:06:57;;;;;;;4.47;2.60;;;11.80;99.90;;;;;;5018154;28;20018;-84
2023/09/05 05:09:23;;;;;;;4.53;2.17;;;11.80;99.90;;;;;;4999731;28;20057;-84
2023/09/05 05:11:49;;;;;;;10.02;5.95;;;11.90;99.90;;;;;;5016964;28;20026;-84
2023/09/05 05:14:15;;;;;;;13.88;8.15;;;11.80;99.90;;;;;;4998489;28;20032;-84
2023/09/05 05:16:43;;;;;;;7.45;4.22;;;11.80;99.90;;;;;;4998721;28;20029;-84
2023/09/05 05:19:10;;;;;;;4.57;2.60;;;11.90;99.90;;;;;;5016239;28;20029;-84
2023/09/05 05:21:35;;;;;;;6.13;3.33;;;11.90;99.90;;;;;;5022105;28;20648;-82
2023/09/05 05:24:01;;;;;;;5.70;3.20;;;14.00;99.90;;;;;;5023913;28;20046;-83
2023/09/05 05:26:28;;;;;;;6.22;3.28;;;14.50;99.90;;;;;;5025281;28;20098;-85
2023/09/05 05:28:54;;;;;;;8.57;2.58;;;14.80;99.90;;;;;;5005891;28;20018;-84
2023/09/05 05:31:19;;;;;;;2.90;2.17;;;14.90;99.90;;;;;;5003945;28;20030;-82
2023/09/05 05:33:45;;;;;;;4.82;3.08;;;15.90;99.90;;;;;;5001016;28;20103;-79
2023/09/05 05:36:10;;;;;;;2.90;2.60;;;15.40;99.90;;;;;;4997984;28;20030;-80
2023/09/05 05:38:36;;;;;;;6.53;3.45;;;15.30;99.90;;;;;;5015564;28;20022;-81
2023/09/05 05:41:02;;;;;;;4.70;2.30;;;15.20;99.90;;;;;;5018044;28;20029;-81
2023/09/05 05:43:29;;;;;;;7.72;2.53;;;14.90;99.90;;;;;;5001331;28;20109;-79
2023/09/05 05:45:55;;;;;;;5.00;2.40;;;15.10;99.90;;;;;;5001338;28;20022;-80
2023/09/05 05:48:20;;;;;;;4.00;2.28;;;15.70;99.90;;;;;;4998921;28;20064;-79
2023/09/05 05:50:46;;;;;;;2.90;2.45;;;15.60;99.90;;;;;;4999517;28;20400;-80
2023/09/05 05:53:13;;;;;;;4.38;2.35;;;15.90;99.90;;;;;;4997956;28;20045;-80
2023/09/05 05:55:39;;;;;;;4.13;2.22;;;16.00;99.90;;;;;;5016320;28;20136;-81
2023/09/05 05:58:05;;;;;;;5.60;2.47;;;16.00;99.90;;;;;;4998402;28;20030;-81
2023/09/05 06:00:30;;;;;;;6.95;2.88;;;16.20;99.90;;;;;;4997905;28;20022;-79
2023/09/05 06:02:56;;;;;;;7.93;2.70;;;16.50;99.90;;;;;;4997956;28;20030;-79
2023/09/05 06:05:23;;;;;;;5.45;2.17;;;16.70;99.90;;;;;;4998128;28;20033;-80
2023/09/05 06:07:49;;;;;;;3.05;2.30;;;16.40;99.90;;;;;;4997551;28;20125;-80
2023/09/05 06:10:15;;;;;;;3.88;2.45;;;16.20;99.90;;;;;;5016747;28;20026;-84
2023/09/05 06:12:41;;;;;;;2.97;2.33;;;16.00;99.90;;;;;;5006750;28;20040;-87
2023/09/05 06:15:08;;;;;;;2.85;1.98;;;16.30;99.90;;;;;;5006710;28;20057;-84
2023/09/05 06:17:33;;;;;;;3.58;2.42;;;16.80;99.90;;;;;;5007356;28;20116;-84
2023/09/05 06:19:59;;;;;;;5.53;2.40;;;17.40;99.90;;;;;;5006496;28;20029;-82
2023/09/05 06:22:25;;;;;;;3.25;2.67;;;17.40;99.90;;;;;;5002194;28;20030;-85
2023/09/05 06:24:50;;;;;;;3.38;2.72;;;17.00;99.90;;;;;;5001235;28;20076;-86
2023/09/05 06:27:16;;;;;;;5.18;2.40;;;16.70;99.90;;;;;;5002320;28;20018;-84
2023/09/05 06:29:41;;;;;;;6.78;2.53;;;16.40;99.90;;;;;;5002318;28;20444;-85
2023/09/05 06:32:07;;;;;;;4.10;2.63;;;16.10;99.90;;;;;;5001523;28;20034;-85
2023/09/05 06:34:33;;;;;;;4.40;2.70;;;16.00;99.90;;;;;;5002123;28;20113;-85
2023/09/05 06:37:01;;;;;;;11.60;2.88;;;15.90;99.90;;;;;;5001979;28;20060;-85
2023/09/05 06:39:27;;;;;;;7.30;2.00;;;16.00;99.90;;;;;;5002687;28;20416;-85
2023/09/05 06:41:52;;;;;;;4.10;2.45;;;16.00;99.90;;;;;;5003455;28;20126;-84
2023/09/05 06:44:18;;;;;;;3.92;2.17;;;16.10;99.90;;;;;;5003363;28;20026;-86
2023/09/05 06:46:43;;;;;;;3.42;2.45;;;16.10;99.90;;;;;;5021674;28;20045;-86
2023/09/05 06:49:09;;;;;;;3.97;2.83;;;16.20;99.90;;;;;;5021900;28;20029;-85
2023/09/05 06:51:35;;;;;;;3.15;2.20;;;16.40;99.90;;;;;;5020914;28;20029;-85
2023/09/05 06:54:00;;;;;;;6.07;2.03;;;16.50;99.90;;;;;;5003027;28;20117;-85
2023/09/05 06:56:26;;;;;;;2.42;2.10;;;16.70;99.90;;;;;;5003335;28;20504;-85
2023/09/05 06:58:52;;;;;;;8.32;2.90;;;16.90;99.90;;;;;;5017490;28;20076;-85
2023/09/05 07:01:18;;;;;;;3.50;2.35;;;17.10;99.90;;;;;;5016635;28;20025;-86
2023/09/05 07:03:43;;;;;;;5.97;2.63;;;17.10;99.90;;;;;;4998691;28;20014;-85
2023/09/05 07:06:09;;;;;;;4.43;2.97;;;17.20;99.90;;;;;;4997186;28;20026;-85
2023/09/05 07:08:34;;;;;;;2.70;2.10;;;17.40;99.90;;;;;;5015223;28;20073;-85
2023/09/05 07:11:00;;;;;;;3.67;1.90;;;17.50;99.90;;;;;;4999301;28;20021;-85
2023/09/05 07:13:26;;;;;;;4.93;1.90;;;17.60;99.90;;;;;;5015969;28;20029;-85
2023/09/05 07:15:52;;;;;;;2.97;1.83;;;17.80;99.90;;;;;;5002587;28;20034;-85
2023/09/05 07:18:18;;;;;;;3.42;2.38;;;18.00;99.90;;;;;;5000602;28;20033;-85
2023/09/05 07:20:44;;;;;;;5.43;2.65;;;18.10;99.90;;;;;;5002147;28;20037;-85
2023/09/05 07:23:09;;;;;;;2.58;1.80;;;18.30;99.90;;;;;;5019649;28;20045;-85
2023/09/05 07:25:39;;;;;;;3.70;1.77;;;18.40;98.70;;;;;;5003869;28;20026;-85
2023/09/05 07:28:05;;;;;;;2.80;1.75;;;18.50;98.40;;;;;;5002923;28;20408;-85
2023/09/05 07:30:34;;;;;;;10.93;2.30;;;18.60;98.00;;;;;;5007946;28;20018;-85
2023/09/05 07:33:00;;;;;;;3.35;1.67;;;18.70;97.80;;;;;;5004855;28;20118;-85
2023/09/05 07:35:26;;;;;;;1.83;1.73;;;18.80;96.50;;;;;;5025768;28;20026;-85
2023/09/05 07:37:51;;;;;;;4.60;1.48;;;18.90;95.10;;;;;;5008081;28;20030;-85
2023/09/05 07:40:17;;;;;;;4.30;1.73;;;19.10;94.30;;;;;;5006796;28;20547;-85
2023/09/05 07:42:43;;;;;;;1.85;1.42;;;19.10;93.00;;;;;;5006549;28;20392;-85
2023/09/05 07:45:10;;;;;;;1.67;1.05;;;19.20;92.50;;;;;;5006762;28;20037;-85
2023/09/05 07:47:35;;;;;;;2.17;1.73;;;19.30;92.10;;;;;;5004127;28;20061;-85
2023/09/05 07:50:02;;;;;;;1.83;1.23;;;19.40;92.00;;;;;;5019454;28;20018;-85
2023/09/05 07:52:27;;;;;;;3.17;1.55;;;19.50;90.60;;;;;;5001982;28;20025;-85
2023/09/05 07:54:53;;;;;;;1.35;1.25;;;19.50;88.50;;;;;;4997499;28;20033;-85
2023/09/05 07:57:19;;;;;;;1.52;1.40;;;19.50;89.40;;;;;;4995502;28;20034;-85
2023/09/05 07:59:45;;;;;;;1.48;1.20;;;19.70;90.60;;;;;;5018811;28;20022;-85
2023/09/05 08:02:10;;;;;;;0.82;0.80;;;20.10;91.10;;;;;;5003333;28;20040;-85
2023/09/05 08:04:40;;;;;;;1.45;1.20;;;20.70;88.90;;;;;;4999939;28;20080;-84
2023/09/05 08:07:06;;;;;;;1.92;1.30;;;20.90;85.40;;;;;;4999061;28;20096;-84
2023/09/05 08:09:33;;;;;;;1.63;1.40;;;21.00;83.20;;;;;;5001401;28;20480;-85
2023/09/05 08:11:58;;;;;;;1.77;1.35;;;21.20;81.10;;;;;;4999549;28;20026;-79
2023/09/05 08:14:24;;;;;;;1.40;1.30;;;21.20;80.90;;;;;;4996173;28;20632;-79
2023/09/05 08:16:50;;;;;;;1.85;1.38;;;21.40;81.60;;;;;;5014621;28;20034;-79
2023/09/05 08:19:15;;;;;;;2.05;1.45;;;21.50;79.60;;;;;;5016611;28;20084;-79
2023/09/05 08:21:41;;;;;;;1.70;1.45;;;21.60;79.20;;;;;;4998768;28;20030;-79
2023/09/05 08:24:09;;;;;;;4.97;1.50;;;21.70;77.70;;;;;;4998608;28;20061;-79
2023/09/05 08:26:36;;;;;;;3.33;1.67;;;21.80;78.30;;;;;;4998361;28;20040;-77
2023/09/05 08:29:03;;;;;;;1.08;1.08;;;22.00;77.30;;;;;;4997849;28;20021;-81
2023/09/05 08:31:30;;;;;;;2.25;1.23;;;22.00;76.20;;;;;;4998545;28;20026;-80
2023/09/05 08:33:56;;;;;;;1.48;1.25;;;22.00;75.10;;;;;;4998631;28;20057;-79
2023/09/05 08:36:22;;;;;;;2.30;1.58;;;22.10;75.20;;;;;;5016382;28;20057;-80
2023/09/05 08:38:48;;;;;;;1.80;1.27;;;22.10;74.50;;;;;;4998975;28;20366;-81
2023/09/05 08:41:13;;;;;;;1.38;1.27;;;22.10;72.20;;;;;;5016001;28;20026;-80
2023/09/05 08:43:39;;;;;;;1.23;1.08;;;22.00;72.80;;;;;;4997870;28;20631;-81
2023/09/05 08:46:04;;;;;;;3.60;1.30;;;22.00;73.30;;;;;;5015266;28;20021;-79
2023/09/05 08:48:32;;;;;;;1.23;1.13;;;21.90;73.90;;;;;;4997561;28;20068;-81
2023/09/05 08:51:00;;;;;;;1.90;1.25;;;21.90;74.00;;;;;;4998235;28;20026;-81
2023/09/05 08:53:52;;;;;;;2.47;1.80;;;22.00;75.10;;;;;;5015792;28;20087;-80
2023/09/05 08:56:19;;;;;;;1.30;1.00;;;22.20;75.30;;;;;;4998033;28;20033;-80
2023/09/05 08:58:45;;;;;;;0.90;0.77;;;22.40;73.60;;;;;;5015458;28;20026;-80
2023/09/05 09:01:11;;;;;;;1.85;1.48;;;22.50;70.80;;;;;;5015939;28;20156;-80
2023/09/05 09:03:36;;;;;;;1.40;1.23;;;22.40;71.60;;;;;;4997863;28;20085;-80
2023/09/05 09:06:02;;;;;;;1.27;1.05;;;22.40;70.70;;;;;;4997861;28;20026;-81
2023/09/05 09:08:42;;;;;;;2.47;1.40;;;22.30;71.60;;;;;;5015021;28;20037;-81
2023/09/05 09:11:09;;;;;;;1.52;1.08;;;22.40;71.70;;;;;;4999990;28;20037;-83
2023/09/05 09:13:36;;;;;;;1.05;1.05;;;22.40;71.30;;;;;;4999505;28;20037;-81
2023/09/05 09:16:02;;;;;;;1.83;1.27;;;22.40;69.50;;;;;;5002746;28;20052;-81
2023/09/05 09:18:31;;;;;;;1.67;1.40;;;22.50;69.10;;;;;;5005203;28;20026;-82
2023/09/05 09:21:01;;;;;;;2.22;1.65;;;22.50;70.10;;;;;;5023373;28;20018;-82
2023/09/05 09:23:28;;;;;;;1.77;1.27;;;22.60;69.80;;;;;;5021224;28;20551;-81
2023/09/05 09:25:55;;;;;;;1.65;1.20;;;22.40;69.20;;;;;;5001388;28;20030;-81
2023/09/05 09:28:36;;;;;;;1.10;0.85;;;22.30;69.20;;;;;;4998276;28;20033;-80
2023/09/05 09:31:04;;;;;;;1.92;1.33;;;22.40;70.70;;;;;;4999754;28;20026;-81
2023/09/05 09:33:31;;;;;;;1.35;1.15;;;22.40;69.80;;;;;;4998396;28;20487;-80
2023/09/05 09:36:10;;;;;;;1.10;1.00;;;22.50;68.00;;;;;;4998486;28;20030;-81
2023/09/05 09:38:38;;;;;;;4.32;1.15;;;22.30;66.70;;;;;;5016696;28;20112;-81
2023/09/05 09:41:06;;;;;;;1.48;1.02;;;22.30;67.80;;;;;;4998699;28;20108;-81
2023/09/05 09:43:36;;;;;;;1.00;0.85;;;22.30;66.60;;;;;;5016566;28;20021;-79
2023/09/05 09:46:08;;;;;;;2.70;1.17;;;22.40;66.90;;;;;;5016372;28;20026;-80
2023/09/05 09:48:35;;;;;;;2.72;1.00;;;22.30;66.70;;;;;;5016096;28;20043;-80
2023/09/05 09:51:04;;;;;;;1.08;0.98;;;22.40;68.60;;;;;;5000677;28;20053;-80
2023/09/05 09:53:38;;;;;;;2.92;0.93;;;22.40;68.50;;;;;;5001755;28;20029;-79
2023/09/05 09:56:09;;;;;;;2.78;1.80;;;22.60;68.20;;;;;;4980690;28;20046;-79
2023/09/05 09:58:37;;;;;;;1.88;1.35;;;22.60;69.00;;;;;;4982864;28;20033;-81
2023/09/05 10:01:04;;;;;;;1.08;0.98;;;22.60;66.90;;;;;;4984003;28;20035;-81
2023/09/05 10:03:31;;;;;;;4.20;1.33;;;22.50;66.00;;;;;;5001984;28;20026;-81
2023/09/05 10:05:57;;;;;;;2.60;1.85;;;22.50;67.00;;;;;;4984773;28;20169;-81
2023/09/05 10:08:24;;;;;;;1.85;1.20;;;22.50;67.30;;;;;;4983472;28;20031;-81
2023/09/05 10:10:51;;;;;;;9.35;1.30;;;22.50;66.50;;;;;;4982122;28;20025;-79
2023/09/05 10:13:21;;;;;;;1.95;1.27;;;22.60;65.50;;;;;;4982586;28;20031;-81
2023/09/05 10:15:48;;;;;;;3.10;1.30;;;22.70;66.40;;;;;;4997643;28;20045;-80
2023/09/05 10:18:16;;;;;;;1.67;0.95;;;22.80;65.70;;;;;;4980365;28;20030;-79
2023/09/05 10:20:43;;;;;;;2.33;1.52;;;22.90;66.20;;;;;;4980027;28;20030;-80
2023/09/05 10:23:09;;;;;;;1.88;1.35;;;23.10;64.70;;;;;;4980425;28;20113;-80
2023/09/05 10:25:36;;;;;;;1.45;1.30;;;23.20;64.50;;;;;;4977838;28;20027;-79
2023/09/05 10:28:03;;;;;;;1.58;1.10;;;23.30;62.40;;;;;;4976648;28;20085;-79
2023/09/05 10:30:28;;;;;;;1.67;1.10;;;23.40;63.00;;;;;;4976630;28;20108;-80
2023/09/05 10:32:57;;;;;;;2.10;1.17;;;23.50;61.20;;;;;;4976770;28;20421;-79
2023/09/05 10:35:23;;;;;;;1.48;1.08;;;23.50;61.40;;;;;;4976859;28;20037;-80
2023/09/05 10:37:51;;;;;;;1.27;1.17;;;23.50;62.00;;;;;;4976182;28;20034;-79
2023/09/05 10:40:18;;;;;;;1.20;0.70;;;23.50;61.50;;;;;;4976589;28;20405;-79
2023/09/05 10:42:53;;;;;;;1.88;1.30;;;23.50;61.10;;;;;;4993785;28;20591;-79
2023/09/05 10:45:22;;;;;;;1.00;0.90;;;23.50;59.60;;;;;;4993920;28;20493;-79
2023/09/05 10:47:49;;;;;;;1.40;1.20;;;23.40;60.70;;;;;;4993503;28;20026;-79
2023/09/05 10:50:23;;;;;;;1.00;0.80;;;23.50;59.80;;;;;;4976349;28;20557;-79
2023/09/05 10:53:11;;;;;;;1.63;1.23;;;23.50;60.40;;;;;;4993828;28;20034;-79
2023/09/05 10:55:46;;;;;;;1.80;1.20;;;23.60;60.50;;;;;;4993140;28;20404;-79
2023/09/05 10:58:53;;;;;;;0.98;0.90;;;23.50;58.60;;;;;;4976668;28;20049;-79
2023/09/05 11:01:34;;;;;;;1.48;1.00;;;23.50;58.60;;;;;;4977838;28;20536;-80
2023/09/05 11:04:07;;;;;;;1.35;1.00;;;23.50;57.10;;;;;;4993095;28;20120;-78
2023/09/05 11:06:33;;;;;;;2.42;1.50;;;23.50;57.60;;;;;;4993295;28;20023;-80
2023/09/05 11:09:06;;;;;;;2.08;1.15;;;23.50;56.10;;;;;;4993186;28;20030;-82
2023/09/05 11:11:32;;;;;;;1.08;0.82;;;23.50;57.30;;;;;;4993445;28;20066;-85
2023/09/05 11:13:58;;;;;;;1.50;1.08;;;23.50;58.10;;;;;;4976220;28;20029;-83
2023/09/05 11:16:24;;;;;;;1.42;1.27;;;23.60;58.10;;;;;;4976488;28;20023;-84
2023/09/05 11:18:56;;;;;;;1.20;0.82;;;23.70;58.60;;;;;;4976221;28;20100;-84
2023/09/05 11:21:24;;;;;;;0.82;0.80;;;23.80;56.50;;;;;;4976392;28;20022;-84
2023/09/05 11:23:54;;;;;;;1.30;1.05;;;23.90;56.00;;;;;;4976643;28;20394;-84
2023/09/05 11:26:20;;;;;;;2.60;1.42;;;23.90;55.40;;;;;;4976413;28;20033;-84
2023/09/05 11:28:48;;;;;;;1.10;1.00;;;24.00;55.00;;;;;;4976036;28;20026;-84
2023/09/05 11:31:18;;;;;;;1.05;0.95;;;24.00;56.50;;;;;;4976403;28;20026;-84
2023/09/05 11:33:48;;;;;;;3.80;1.38;;;24.10;56.80;;;;;;4993598;28;20026;-80
2023/09/05 11:36:14;;;;;;;0.88;0.85;;;24.10;54.00;;;;;;4976834;28;20027;-80
2023/09/05 11:38:58;;;;;;;2.45;1.00;;;24.00;52.70;;;;;;4993885;28;20396;-79
2023/09/05 11:41:37;;;;;;;1.00;0.98;;;23.90;53.40;;;;;;4976639;28;20142;-80
2023/09/05 11:44:03;;;;;;;1.25;1.10;;;24.00;54.80;;;;;;4977128;28;20049;-80
2023/09/05 11:46:29;;;;;;;1.73;1.08;;;24.00;55.80;;;;;;4976935;28;20058;-80
2023/09/05 11:48:58;;;;;;;0.70;0.63;;;24.10;54.50;;;;;;4994041;28;20018;-80
2023/09/05 11:51:25;;;;;;;2.30;1.00;;;24.10;54.40;;;;;;4987024;28;20072;-79
2023/09/05 11:53:52;;;;;;;1.40;1.00;;;24.00;52.10;;;;;;4994566;28;20035;-81
2023/09/05 11:56:18;;;;;;;1.17;1.08;;;24.00;53.10;;;;;;4989798;28;20089;-80
2023/09/05 11:58:45;;;;;;;0.95;0.95;;;24.10;52.20;;;;;;5005084;28;20034;-81
2023/09/05 12:01:11;;;;;;;1.10;1.00;;;24.10;54.40;;;;;;4988007;28;20023;-81
2023/09/05 12:03:38;;;;;;;1.00;0.90;;;24.20;52.20;;;;;;4988537;28;20030;-81
2023/09/05 12:06:04;;;;;;;2.17;0.95;;;24.20;52.00;;;;;;4989790;28;20022;-80
2023/09/05 12:08:30;;;;;;;0.93;0.90;;;24.30;51.60;;;;;;4986074;28;20125;-85
2023/09/05 12:10:57;;;;;;;1.20;1.10;;;24.30;52.70;;;;;;4985618;28;20029;-85
2023/09/05 12:13:39;;;;;;;2.78;1.00;;;24.20;53.80;;;;;;5003813;28;20025;-85
2023/09/05 12:16:09;;;;;;;1.20;1.00;;;24.40;53.80;;;;;;4989580;28;20026;-86
2023/09/05 12:18:35;;;;;;;1.23;1.13;;;24.40;53.30;;;;;;4987855;28;20026;-86
2023/09/05 12:21:01;;;;;;;3.00;1.15;;;24.50;52.90;;;;;;5007166;28;20116;-87
2023/09/05 12:23:27;;;;;;;1.55;1.33;;;24.40;53.10;;;;;;5006610;28;20026;-87
2023/09/05 12:25:57;;;;;;;1.27;1.13;;;24.50;54.10;;;;;;4987864;28;20049;-88
2023/09/05 12:28:24;;;;;;;1.48;0.98;;;24.60;54.30;;;;;;5003577;28;20463;-86
2023/09/05 12:30:53;;;;;;;1.45;1.00;;;24.50;54.20;;;;;;4985035;28;20144;-87
2023/09/05 12:33:20;;;;;;;2.50;1.10;;;24.60;54.40;;;;;;5004527;28;20150;-87
2023/09/05 12:35:46;;;;;;;1.30;1.20;;;24.60;54.40;;;;;;5005426;28;20026;-85
2023/09/05 12:38:14;;;;;;;1.25;1.13;;;24.50;50.70;;;;;;4986516;28;20030;-88
2023/09/05 12:40:42;;;;;;;2.83;1.17;;;24.40;51.10;;;;;;5004054;28;20022;-85
2023/09/05 12:43:07;;;;;;;2.20;1.17;;;24.50;51.90;;;;;;4986693;28;20033;-86
2023/09/05 12:45:33;;;;;;;0.95;0.88;;;24.50;51.00;;;;;;4986306;28;20392;-86